createdAt,value
2017-02-09T00:00:12.199Z,55.57
2017-02-09T00:01:21.145Z,55.76
2017-02-09T00:02:30.093Z,55.29
2017-02-09T00:03:39.040Z,55.57
2017-02-09T00:04:48.072Z,55.29
2017-02-09T00:05:57.022Z,55.29
2017-02-09T00:07:05.979Z,55.38
2017-02-09T00:08:15.329Z,55.94
2017-02-09T00:09:24.276Z,55.85
2017-02-09T00:10:33.224Z,55.57
2017-02-09T00:11:42.171Z,55.57
2017-02-09T00:12:51.123Z,55.29
2017-02-09T00:14:00.076Z,55.29
2017-02-09T00:15:09.023Z,55.38
2017-02-09T00:16:18.054Z,55.57
2017-02-09T00:17:27.003Z,55.19
2017-02-09T00:18:35.947Z,55
2017-02-09T00:19:44.896Z,55.47
2017-02-09T00:20:53.843Z,55.57
2017-02-09T00:22:02.790Z,55.57
2017-02-09T00:23:11.736Z,55.76
2017-02-09T00:24:20.689Z,55.76
2017-02-09T00:25:29.637Z,55.57
2017-02-09T00:26:38.585Z,55.85
2017-02-09T00:27:47.538Z,55.57
2017-02-09T00:28:56.485Z,55.66
2017-02-09T00:30:05.436Z,55.66
2017-02-09T00:31:14.398Z,55.47
2017-02-09T00:32:23.431Z,55.47
2017-02-09T00:33:32.468Z,55.66
2017-02-09T00:34:41.410Z,55.94
2017-02-09T00:35:50.358Z,56.23
2017-02-09T00:36:59.483Z,56.23
2017-02-09T00:38:08.433Z,56.42
2017-02-09T00:39:17.381Z,56.13
2017-02-09T00:40:26.330Z,56.13
2017-02-09T00:41:35.279Z,56.13
2017-02-09T00:42:44.227Z,56.23
2017-02-09T00:43:53.174Z,55.85
2017-02-09T00:45:02.206Z,56.23
2017-02-09T00:46:11.558Z,56.42
2017-02-09T00:47:20.512Z,56.23
2017-02-09T00:48:29.466Z,56.04
2017-02-09T00:49:38.419Z,56.04
2017-02-09T00:50:47.365Z,56.23
2017-02-09T00:51:56.313Z,56.32
2017-02-09T00:53:05.267Z,55.94
2017-02-09T00:54:14.216Z,55.94
2017-02-09T00:55:23.251Z,56.13
2017-02-09T00:56:32.199Z,56.23
2017-02-09T00:57:41.153Z,56.13
2017-02-09T00:58:50.107Z,56.04
2017-02-09T00:59:59.052Z,56.13
2017-02-09T01:01:08.003Z,56.42
2017-02-09T01:02:17.635Z,56.04
2017-02-09T01:03:26.580Z,56.23
2017-02-09T01:04:35.939Z,55.94
2017-02-09T01:05:44.972Z,56.32
2017-02-09T01:06:53.922Z,56.13
2017-02-09T01:08:02.865Z,56.13
2017-02-09T01:09:11.813Z,55.94
2017-02-09T01:10:20.763Z,55.76
2017-02-09T01:11:29.710Z,55.66
2017-02-09T01:12:38.658Z,55.66
2017-02-09T01:13:47.608Z,55.57
2017-02-09T01:14:56.553Z,55.47
2017-02-09T01:16:05.911Z,55.66
2017-02-09T01:17:14.943Z,55.66
2017-02-09T01:18:23.894Z,55.47
2017-02-09T01:19:32.927Z,56.04
2017-02-09T01:20:41.874Z,56.13
2017-02-09T01:21:50.829Z,56.42
2017-02-09T01:22:59.777Z,56.13
2017-02-09T01:24:08.721Z,56.23
2017-02-09T01:25:17.669Z,55.85
2017-02-09T01:26:27.021Z,56.13
2017-02-09T01:27:36.376Z,56.04
2017-02-09T01:28:45.326Z,56.89
2017-02-09T01:29:54.275Z,56.77
2017-02-09T01:31:03.315Z,56.48
2017-02-09T01:32:12.260Z,56.48
2017-02-09T01:33:21.207Z,56.77
2017-02-09T01:34:30.152Z,56.48
2017-02-09T01:35:39.269Z,56.58
2017-02-09T01:36:48.215Z,56.58
2017-02-09T01:37:57.160Z,56.61
2017-02-09T01:39:06.105Z,56.48
2017-02-09T01:40:15.054Z,56.3
2017-02-09T01:41:24.002Z,56.67
2017-02-09T01:42:32.949Z,56.58
2017-02-09T01:43:41.898Z,56.42
2017-02-09T01:44:50.937Z,56.51
2017-02-09T01:46:00.052Z,56.42
2017-02-09T01:47:09.004Z,56.51
2017-02-09T01:48:17.953Z,56.32
2017-02-09T01:49:26.899Z,56.23
2017-02-09T01:50:35.842Z,56.7
2017-02-09T01:51:44.791Z,56.7
2017-02-09T01:52:53.737Z,56.8
2017-02-09T01:54:02.784Z,56.23
2017-02-09T01:55:11.731Z,56.23
2017-02-09T01:56:20.684Z,56.04
2017-02-09T01:57:29.631Z,56.32
2017-02-09T01:58:38.577Z,56.13
2017-02-09T01:59:47.527Z,56.23
2017-02-09T02:00:56.558Z,56.23
2017-02-09T02:02:05.510Z,56.23
2017-02-09T02:03:14.457Z,56.04
2017-02-09T02:04:23.403Z,56.32
2017-02-09T02:05:32.353Z,56.23
2017-02-09T02:06:41.304Z,56.32
2017-02-09T02:07:50.256Z,56.23
2017-02-09T02:08:59.211Z,56.04
2017-02-09T02:10:08.163Z,55.76
2017-02-09T02:11:17.103Z,56.04
2017-02-09T02:12:26.455Z,56.23
2017-02-09T02:13:35.844Z,56.04
2017-02-09T02:14:44.879Z,56.42
2017-02-09T02:15:53.825Z,55.85
2017-02-09T02:17:02.772Z,55.94
2017-02-09T02:18:11.720Z,55.85
2017-02-09T02:19:20.682Z,56.23
2017-02-09T02:20:29.631Z,56.23
2017-02-09T02:21:38.985Z,56.04
2017-02-09T02:22:47.939Z,56.04
2017-02-09T02:23:56.891Z,56.23
2017-02-09T02:25:06.241Z,56.32
2017-02-09T02:26:15.188Z,56.13
2017-02-09T02:27:24.139Z,56.13
2017-02-09T02:28:33.085Z,56.23
2017-02-09T02:29:42.035Z,56.61
2017-02-09T02:30:50.983Z,56.8
2017-02-09T02:31:59.929Z,56.51
2017-02-09T02:33:08.875Z,56.42
2017-02-09T02:34:17.834Z,56.42
2017-02-09T02:35:27.189Z,56.7
2017-02-09T02:36:36.828Z,56.8
2017-02-09T02:37:45.774Z,56.61
2017-02-09T02:38:54.810Z,56.61
2017-02-09T02:40:03.758Z,56.89
2017-02-09T02:41:12.708Z,56.99
2017-02-09T02:42:21.655Z,57.15
2017-02-09T02:43:31.096Z,56.77
2017-02-09T02:44:40.041Z,57.43
2017-02-09T02:45:49.006Z,57.71
2017-02-09T02:46:57.954Z,57.81
2017-02-09T02:48:07.378Z,57.71
2017-02-09T02:49:16.323Z,57.9
2017-02-09T02:50:25.308Z,58
2017-02-09T02:51:34.255Z,57.9
2017-02-09T02:52:43.204Z,57.9
2017-02-09T02:53:52.150Z,57.71
2017-02-09T02:55:01.099Z,57.9
2017-02-09T02:56:10.045Z,58
2017-02-09T02:57:18.994Z,58
2017-02-09T02:58:27.942Z,57.62
2017-02-09T02:59:36.884Z,57.81
2017-02-09T03:00:45.834Z,58
2017-02-09T03:01:55.188Z,57.24
2017-02-09T03:03:04.224Z,57.71
2017-02-09T03:04:13.167Z,57.81
2017-02-09T03:05:22.114Z,57.62
2017-02-09T03:06:31.063Z,57.62
2017-02-09T03:07:40.012Z,57.62
2017-02-09T03:08:48.959Z,57.81
2017-02-09T03:09:57.907Z,57.34
2017-02-09T03:11:06.860Z,57.62
2017-02-09T03:12:15.808Z,57.53
2017-02-09T03:13:24.843Z,57.62
2017-02-09T03:14:33.876Z,57.15
2017-02-09T03:15:42.912Z,57.24
2017-02-09T03:16:51.860Z,57.81
2017-02-09T03:18:00.809Z,57.71
2017-02-09T03:19:09.755Z,57.9
2017-02-09T03:20:18.701Z,57.9
2017-02-09T03:21:27.659Z,57.34
2017-02-09T03:22:36.644Z,57.15
2017-02-09T03:23:45.591Z,57.15
2017-02-09T03:24:54.622Z,56.96
2017-02-09T03:26:03.570Z,57.34
2017-02-09T03:27:12.516Z,57.34
2017-02-09T03:28:21.463Z,57.34
2017-02-09T03:29:30.409Z,57.62
2017-02-09T03:30:39.357Z,57.43
2017-02-09T03:31:48.300Z,57.62
2017-02-09T03:32:57.245Z,57.9
2017-02-09T03:34:06.605Z,57.62
2017-02-09T03:35:15.553Z,57.81
2017-02-09T03:36:24.500Z,57.9
2017-02-09T03:37:33.850Z,57.71
2017-02-09T03:38:42.891Z,58.37
2017-02-09T03:39:51.927Z,58.28
2017-02-09T03:41:00.879Z,58.56
2017-02-09T03:42:09.825Z,58.37
2017-02-09T03:43:18.859Z,58.28
2017-02-09T03:44:27.809Z,58.18
2017-02-09T03:45:36.759Z,58.09
2017-02-09T03:46:45.707Z,58.28
2017-02-09T03:47:54.656Z,58.28
2017-02-09T03:49:03.604Z,58.47
2017-02-09T03:50:12.549Z,58.75
2017-02-09T03:51:21.902Z,58.37
2017-02-09T03:52:30.851Z,58.47
2017-02-09T03:53:40.207Z,58.28
2017-02-09T03:54:49.153Z,58.47
2017-02-09T03:55:58.104Z,57.9
2017-02-09T03:57:07.058Z,58.37
2017-02-09T03:58:16.005Z,57.9
2017-02-09T03:59:24.954Z,58
2017-02-09T04:00:34.075Z,57.62
2017-02-09T04:01:43.036Z,57.53
2017-02-09T04:02:51.983Z,57.71
2017-02-09T04:04:01.016Z,57.9
2017-02-09T04:05:09.972Z,58.37
2017-02-09T04:06:18.926Z,58
2017-02-09T04:07:27.964Z,58.18
2017-02-09T04:08:37.002Z,58.47
2017-02-09T04:09:45.946Z,58.47
2017-02-09T04:10:54.915Z,58.56
2017-02-09T04:12:03.866Z,58.28
2017-02-09T04:13:12.811Z,58.37
2017-02-09T04:14:21.756Z,58.37
2017-02-09T04:15:30.706Z,58.56
2017-02-09T04:16:39.687Z,58.47
2017-02-09T04:17:48.635Z,58.28
2017-02-09T04:18:57.589Z,57.81
2017-02-09T04:20:06.539Z,58
2017-02-09T04:21:15.491Z,57.9
2017-02-09T04:22:24.843Z,57.71
2017-02-09T04:23:33.791Z,57.81
2017-02-09T04:24:42.737Z,58
2017-02-09T04:25:51.688Z,57.81
2017-02-09T04:27:00.636Z,57.34
2017-02-09T04:28:09.670Z,57.53
2017-02-09T04:29:18.615Z,57.15
2017-02-09T04:30:27.559Z,57.24
2017-02-09T04:31:36.506Z,57.9
2017-02-09T04:32:45.460Z,57.81
2017-02-09T04:33:54.405Z,58
2017-02-09T04:35:03.352Z,57.71
2017-02-09T04:36:12.299Z,57.62
2017-02-09T04:37:21.657Z,57.62
2017-02-09T04:38:30.599Z,57.43
2017-02-09T04:39:39.556Z,57.24
2017-02-09T04:40:48.909Z,57.15
2017-02-09T04:41:57.859Z,57.24
2017-02-09T04:43:07.213Z,57.53
2017-02-09T04:44:16.161Z,57.71
2017-02-09T04:45:25.114Z,57.81
2017-02-09T04:46:34.061Z,57.34
2017-02-09T04:47:43.007Z,57.34
2017-02-09T04:48:51.954Z,57.62
2017-02-09T04:50:00.904Z,57.71
2017-02-09T04:51:09.857Z,57.9
2017-02-09T04:52:18.808Z,57.71
2017-02-09T04:53:27.758Z,57.81
2017-02-09T04:54:36.730Z,57.9
2017-02-09T04:55:45.676Z,58.09
2017-02-09T04:56:54.619Z,58.37
2017-02-09T04:58:03.568Z,57.9
2017-02-09T04:59:12.513Z,57.71
2017-02-09T05:00:21.460Z,58.37
2017-02-09T05:01:30.405Z,58.28
2017-02-09T05:02:39.353Z,57.9
2017-02-09T05:03:48.296Z,57.81
2017-02-09T05:04:57.249Z,57.9
2017-02-09T05:06:06.284Z,58.18
2017-02-09T05:07:15.240Z,58.18
2017-02-09T05:08:24.276Z,58.28
2017-02-09T05:09:33.228Z,58.47
2017-02-09T05:10:42.660Z,58.56
2017-02-09T05:11:51.606Z,58.75
2017-02-09T05:13:00.672Z,58.47
2017-02-09T05:14:09.624Z,58.56
2017-02-09T05:15:18.569Z,58.84
2017-02-09T05:16:27.600Z,58.47
2017-02-09T05:17:36.548Z,58.56
2017-02-09T05:18:45.496Z,58.84
2017-02-09T05:19:54.443Z,58.84
2017-02-09T05:21:03.389Z,58.65
2017-02-09T05:22:12.339Z,58.75
2017-02-09T05:23:21.288Z,59.13
2017-02-09T05:24:30.236Z,58.94
2017-02-09T05:25:39.178Z,59.41
2017-02-09T05:26:48.123Z,59.22
2017-02-09T05:27:57.071Z,59.22
2017-02-09T05:29:06.106Z,59.41
2017-02-09T05:30:15.053Z,59.41
2017-02-09T05:31:23.996Z,59.51
2017-02-09T05:32:32.943Z,59.98
2017-02-09T05:33:41.889Z,59.7
2017-02-09T05:34:50.838Z,59.89
2017-02-09T05:35:59.787Z,59.79
2017-02-09T05:37:08.734Z,59.86
2017-02-09T05:38:17.686Z,60.17
2017-02-09T05:39:26.629Z,59.98
2017-02-09T05:40:35.577Z,60.17
2017-02-09T05:41:44.532Z,60.83
2017-02-09T05:42:53.482Z,60.08
2017-02-09T05:44:02.458Z,60.27
2017-02-09T05:45:11.402Z,60.08
2017-02-09T05:46:20.346Z,59.79
2017-02-09T05:47:29.296Z,60.08
2017-02-09T05:48:38.243Z,59.41
2017-02-09T05:49:47.186Z,59.41
2017-02-09T05:50:56.134Z,59.32
2017-02-09T05:52:05.094Z,59.51
2017-02-09T05:53:14.132Z,59.22
2017-02-09T05:54:23.081Z,59.22
2017-02-09T05:55:32.028Z,59.41
2017-02-09T05:56:41.061Z,59.41
2017-02-09T05:57:50.009Z,59.32
2017-02-09T05:58:58.958Z,59.41
2017-02-09T06:00:07.906Z,59.32
2017-02-09T06:01:16.852Z,59.13
2017-02-09T06:02:25.802Z,59.03
2017-02-09T06:03:34.752Z,59.13
2017-02-09T06:04:43.708Z,59.03
2017-02-09T06:05:52.654Z,58.84
2017-02-09T06:07:01.601Z,59.13
2017-02-09T06:08:10.548Z,59.22
2017-02-09T06:09:19.493Z,59.03
2017-02-09T06:10:28.440Z,59.41
2017-02-09T06:11:37.385Z,59.41
2017-02-09T06:12:46.332Z,59.41
2017-02-09T06:13:55.277Z,58.94
2017-02-09T06:15:04.229Z,58.65
2017-02-09T06:16:13.184Z,58.47
2017-02-09T06:17:22.131Z,58.75
2017-02-09T06:18:31.486Z,59.13
2017-02-09T06:19:40.437Z,58.65
2017-02-09T06:20:49.390Z,58.65
2017-02-09T06:21:58.338Z,58.65
2017-02-09T06:23:07.285Z,59.22
2017-02-09T06:24:16.231Z,59.13
2017-02-09T06:25:25.215Z,58.75
2017-02-09T06:26:34.160Z,58.84
2017-02-09T06:27:43.108Z,59.32
2017-02-09T06:28:52.059Z,59.41
2017-02-09T06:30:01.037Z,59.22
2017-02-09T06:31:09.991Z,59.22
2017-02-09T06:32:18.939Z,59.22
2017-02-09T06:33:27.884Z,59.79
2017-02-09T06:34:36.833Z,59.7
2017-02-09T06:35:45.781Z,60.36
2017-02-09T06:36:54.724Z,59.79
2017-02-09T06:38:03.756Z,59.7
2017-02-09T06:39:12.702Z,59.89
2017-02-09T06:40:21.648Z,59.89
2017-02-09T06:41:30.606Z,59.89
2017-02-09T06:42:39.551Z,59.13
2017-02-09T06:43:48.501Z,59.03
2017-02-09T06:44:57.457Z,59.32
2017-02-09T06:46:06.812Z,59.41
2017-02-09T06:47:15.757Z,58.84
2017-02-09T06:48:24.702Z,58.65
2017-02-09T06:49:33.650Z,58.75
2017-02-09T06:50:42.598Z,58.56
2017-02-09T06:51:51.555Z,58.37
2017-02-09T06:53:00.502Z,58.47
2017-02-09T06:54:09.449Z,58.28
2017-02-09T06:55:18.400Z,58.75
2017-02-09T06:56:27.346Z,58.56
2017-02-09T06:57:36.294Z,58.75
2017-02-09T06:58:45.245Z,58.47
2017-02-09T06:59:54.190Z,58.75
2017-02-09T07:01:03.147Z,58.47
2017-02-09T07:02:12.094Z,58.65
2017-02-09T07:03:21.040Z,58.84
2017-02-09T07:04:29.992Z,58.28
2017-02-09T07:05:38.942Z,58.56
2017-02-09T07:06:47.909Z,58.56
2017-02-09T07:07:56.856Z,58.28
2017-02-09T07:09:05.806Z,57.62
2017-02-09T07:10:14.757Z,57.62
2017-02-09T07:11:23.703Z,57.9
2017-02-09T07:12:32.655Z,57.9
2017-02-09T07:13:41.638Z,57.53
2017-02-09T07:14:50.584Z,57.71
2017-02-09T07:15:59.616Z,57.81
2017-02-09T07:17:08.567Z,57.62
2017-02-09T07:18:17.514Z,57.74
2017-02-09T07:19:26.464Z,57.34
2017-02-09T07:20:35.415Z,57.43
2017-02-09T07:21:44.360Z,57.15
2017-02-09T07:22:53.339Z,57.34
2017-02-09T07:24:02.299Z,57.15
2017-02-09T07:25:11.657Z,57.24
2017-02-09T07:26:20.604Z,57.43
2017-02-09T07:27:29.549Z,57.9
2017-02-09T07:28:38.501Z,57.62
2017-02-09T07:29:47.537Z,57.9
2017-02-09T07:30:56.482Z,58
2017-02-09T07:32:05.429Z,58.28
2017-02-09T07:33:14.375Z,58.28
2017-02-09T07:34:23.323Z,58.47
2017-02-09T07:35:32.270Z,58.09
2017-02-09T07:36:41.216Z,58.47
2017-02-09T07:37:50.163Z,58.47
2017-02-09T07:38:59.113Z,58.28
2017-02-09T07:40:08.068Z,57.62
2017-02-09T07:41:17.106Z,57.62
2017-02-09T07:42:26.463Z,57.81
2017-02-09T07:43:35.414Z,58.12
2017-02-09T07:44:44.361Z,57.9
2017-02-09T07:45:53.719Z,57.71
2017-02-09T07:47:02.691Z,57.62
2017-02-09T07:48:11.645Z,58.22
2017-02-09T07:49:20.682Z,58.47
2017-02-09T07:50:29.631Z,58.47
2017-02-09T07:51:38.578Z,58.28
2017-02-09T07:52:47.529Z,58.03
2017-02-09T07:53:56.481Z,58.03
2017-02-09T07:55:05.430Z,58.31
2017-02-09T07:56:14.788Z,57.93
2017-02-09T07:57:23.739Z,57.84
2017-02-09T07:58:32.692Z,57.55
2017-02-09T07:59:41.644Z,57.84
2017-02-09T08:00:50.678Z,57.65
2017-02-09T08:01:59.644Z,57.93
2017-02-09T08:03:09.411Z,57.65
2017-02-09T08:04:18.361Z,57.55
2017-02-09T08:05:27.395Z,57.37
2017-02-09T08:06:36.379Z,57.46
2017-02-09T08:07:45.331Z,57.18
2017-02-09T08:08:54.273Z,57.46
2017-02-09T08:10:03.227Z,57.08
2017-02-09T08:11:12.177Z,57.08
2017-02-09T08:12:21.123Z,57.46
2017-02-09T08:13:30.078Z,57.46
2017-02-09T08:14:39.677Z,56.89
2017-02-09T08:15:49.507Z,57.18
2017-02-09T08:16:58.715Z,57.18
2017-02-09T08:18:08.116Z,56.99
2017-02-09T08:19:17.068Z,56.89
2017-02-09T08:20:26.018Z,57.08
2017-02-09T08:21:36.156Z,57.08
2017-02-09T08:22:46.240Z,57.18
2017-02-09T08:23:55.186Z,57.18
2017-02-09T08:25:04.912Z,57.55
2017-02-09T08:26:15.641Z,57.71
2017-02-09T08:27:25.223Z,57.81
2017-02-09T08:28:35.864Z,57.9
2017-02-09T08:29:44.816Z,57.81
2017-02-09T08:30:53.788Z,58.37
2017-02-09T08:32:02.851Z,58.47
2017-02-09T08:33:11.801Z,58.28
2017-02-09T08:34:21.969Z,58.28
2017-02-09T08:35:30.962Z,58.09
2017-02-09T08:36:39.908Z,58
2017-02-09T08:37:48.947Z,57.62
2017-02-09T08:38:58.310Z,57.93
2017-02-09T08:40:07.603Z,57.74
2017-02-09T08:41:16.577Z,57.55
2017-02-09T08:42:25.739Z,57.08
2017-02-09T08:43:34.866Z,57.08
2017-02-09T08:44:44.955Z,56.32
2017-02-09T08:45:54.310Z,56.32
2017-02-09T08:47:05.115Z,56.42
2017-02-09T08:48:14.429Z,56.23
2017-02-09T08:49:23.379Z,55.85
2017-02-09T08:50:32.331Z,56.23
2017-02-09T08:51:42.476Z,55.94
2017-02-09T08:52:52.595Z,55.66
2017-02-09T08:54:01.543Z,55.76
2017-02-09T08:55:10.855Z,55.85
2017-02-09T08:56:20.148Z,55.57
2017-02-09T08:57:29.094Z,55.38
2017-02-09T08:58:38.046Z,55.29
2017-02-09T08:59:48.806Z,54.91
2017-02-09T09:00:57.761Z,55.19
2017-02-09T09:02:06.713Z,54.72
2017-02-09T09:03:16.296Z,54.81
2017-02-09T09:04:25.247Z,55.1
2017-02-09T09:05:34.593Z,54.91
2017-02-09T09:06:43.638Z,54.62
2017-02-09T09:07:53.001Z,54.72
2017-02-09T09:09:02.353Z,54.53
2017-02-09T09:10:11.390Z,54.53
2017-02-09T09:11:20.339Z,54.72
2017-02-09T09:12:29.285Z,54.25
2017-02-09T09:13:38.319Z,53.77
2017-02-09T09:14:47.277Z,54.15
2017-02-09T09:15:56.225Z,53.68
2017-02-09T09:17:05.176Z,53.77
2017-02-09T09:18:14.623Z,54.06
2017-02-09T09:19:23.575Z,53.77
2017-02-09T09:20:32.524Z,54.06
2017-02-09T09:21:41.474Z,53.96
2017-02-09T09:22:50.422Z,53.68
2017-02-09T09:23:59.375Z,53.87
2017-02-09T09:25:08.325Z,54.15
2017-02-09T09:26:18.094Z,54.72
2017-02-09T09:27:27.042Z,54.62
2017-02-09T09:28:37.342Z,54.06
2017-02-09T09:29:46.322Z,54.06
2017-02-09T09:30:55.995Z,53.87
2017-02-09T09:32:04.947Z,53.96
2017-02-09T09:33:16.054Z,53.96
2017-02-09T09:34:25.834Z,53.49
2017-02-09T09:35:34.783Z,53.49
2017-02-09T09:36:44.481Z,53.58
2017-02-09T09:37:53.436Z,53.58
2017-02-09T09:39:02.392Z,53.77
2017-02-09T09:40:12.429Z,53.89
2017-02-09T09:41:21.465Z,53.33
2017-02-09T09:42:31.276Z,53.61
2017-02-09T09:43:41.059Z,53.87
2017-02-09T09:44:50.371Z,54.62
2017-02-09T09:45:59.673Z,54.44
2017-02-09T09:47:09.275Z,54.44
2017-02-09T09:48:18.359Z,54.25
2017-02-09T09:49:27.897Z,54.81
2017-02-09T09:50:36.845Z,54.44
2017-02-09T09:51:45.790Z,54.44
2017-02-09T09:52:55.055Z,54.62
2017-02-09T09:54:05.071Z,54.44
2017-02-09T09:55:14.812Z,54.34
2017-02-09T09:56:23.759Z,54.44
2017-02-09T09:57:33.448Z,54.62
2017-02-09T09:58:42.995Z,54.62
2017-02-09T09:59:52.391Z,54.34
2017-02-09T10:01:01.694Z,54.06
2017-02-09T10:02:11.620Z,54.15
2017-02-09T10:03:20.878Z,53.49
2017-02-09T10:04:30.042Z,53.39
2017-02-09T10:05:39.568Z,53.77
2017-02-09T10:06:51.055Z,53.89
2017-02-09T10:08:00.376Z,53.39
2017-02-09T10:09:09.325Z,53.7
2017-02-09T10:10:18.286Z,53.52
2017-02-09T10:11:27.232Z,53.05
2017-02-09T10:12:36.357Z,53.23
2017-02-09T10:13:45.304Z,52.95
2017-02-09T10:14:54.355Z,53.23
2017-02-09T10:16:03.308Z,53.05
2017-02-09T10:17:12.257Z,53.52
2017-02-09T10:18:21.214Z,53.33
2017-02-09T10:19:30.164Z,52.86
2017-02-09T10:20:39.604Z,53.42
2017-02-09T10:21:48.557Z,53.33
2017-02-09T10:22:57.505Z,53.52
2017-02-09T10:24:06.461Z,53.61
2017-02-09T10:25:15.410Z,53.52
2017-02-09T10:26:24.358Z,53.61
2017-02-09T10:27:33.305Z,54.08
2017-02-09T10:28:42.254Z,55
2017-02-09T10:29:51.207Z,55.94
2017-02-09T10:31:00.158Z,55.1
2017-02-09T10:32:09.197Z,55.85
2017-02-09T10:33:18.145Z,55
2017-02-09T10:34:27.093Z,54.72
2017-02-09T10:35:36.046Z,55.29
2017-02-09T10:36:45.089Z,55.38
2017-02-09T10:37:54.040Z,55.38
2017-02-09T10:39:02.990Z,55.85
2017-02-09T10:40:11.938Z,56.89
2017-02-09T10:41:20.884Z,55.85
2017-02-09T10:42:30.239Z,54.46
2017-02-09T10:43:39.271Z,54.91
2017-02-09T10:44:48.217Z,55.38
2017-02-09T10:45:57.167Z,55.94
2017-02-09T10:47:06.613Z,55.19
2017-02-09T10:48:15.565Z,54.46
2017-02-09T10:49:24.513Z,53.99
2017-02-09T10:50:33.458Z,53.61
2017-02-09T10:51:42.440Z,53.7
2017-02-09T10:52:51.392Z,53.52
2017-02-09T10:54:00.423Z,53.23
2017-02-09T10:55:09.370Z,53.33
2017-02-09T10:56:18.412Z,53.52
2017-02-09T10:57:27.452Z,52.86
2017-02-09T10:58:36.400Z,52.48
2017-02-09T10:59:45.349Z,52.67
2017-02-09T11:00:54.292Z,52.19
2017-02-09T11:02:03.242Z,52
2017-02-09T11:03:12.188Z,52
2017-02-09T11:04:21.141Z,51.72
2017-02-09T11:05:30.097Z,51.72
2017-02-09T11:06:39.049Z,51.62
2017-02-09T11:07:47.993Z,51.72
2017-02-09T11:08:56.939Z,51.53
2017-02-09T11:10:05.888Z,51.72
2017-02-09T11:11:14.840Z,51.62
2017-02-09T11:12:23.790Z,51.62
2017-02-09T11:13:32.748Z,51.72
2017-02-09T11:14:41.735Z,51.72
2017-02-09T11:15:50.773Z,51.43
2017-02-09T11:16:59.722Z,51.62
2017-02-09T11:18:08.669Z,51.43
2017-02-09T11:19:17.619Z,51.34
2017-02-09T11:20:26.568Z,51.43
2017-02-09T11:21:35.928Z,51.53
2017-02-09T11:22:44.875Z,51.53
2017-02-09T11:23:53.823Z,51.53
2017-02-09T11:25:02.774Z,51.53
2017-02-09T11:26:11.724Z,51.43
2017-02-09T11:27:20.677Z,51.53
2017-02-09T11:28:29.624Z,51.62
2017-02-09T11:29:38.577Z,51.43
2017-02-09T11:30:47.519Z,51.62
2017-02-09T11:31:56.470Z,51.18
2017-02-09T11:33:05.419Z,50.99
2017-02-09T11:34:14.454Z,51.18
2017-02-09T11:35:23.402Z,50.96
2017-02-09T11:36:32.352Z,51.53
2017-02-09T11:37:41.301Z,51.34
2017-02-09T11:38:50.255Z,51.15
2017-02-09T11:39:59.208Z,50.9
2017-02-09T11:41:08.561Z,50.87
2017-02-09T11:42:17.511Z,50.96
2017-02-09T11:43:26.461Z,50.78
2017-02-09T11:44:35.414Z,50.87
2017-02-09T11:45:44.367Z,50.59
2017-02-09T11:46:53.319Z,51.15
2017-02-09T11:48:02.275Z,51.81
2017-02-09T11:49:11.223Z,51.62
2017-02-09T11:50:20.170Z,51.62
2017-02-09T11:51:29.117Z,51.91
2017-02-09T11:52:38.060Z,51.62
2017-02-09T11:53:47.180Z,51.62
2017-02-09T11:54:56.126Z,51.72
2017-02-09T11:56:05.076Z,51.62
2017-02-09T11:57:14.052Z,51.43
2017-02-09T11:58:23.085Z,51.43
2017-02-09T11:59:32.029Z,51.62
2017-02-09T12:00:40.982Z,51.34
2017-02-09T12:01:49.932Z,51.62
2017-02-09T12:02:58.882Z,51.15
2017-02-09T12:04:07.824Z,51.06
2017-02-09T12:05:16.855Z,51.06
2017-02-09T12:06:25.804Z,51.15
2017-02-09T12:07:34.748Z,51.62
2017-02-09T12:08:43.695Z,51.56
2017-02-09T12:09:52.643Z,51.46
2017-02-09T12:11:01.594Z,50.99
2017-02-09T12:12:10.542Z,50.9
2017-02-09T12:13:19.497Z,51.28
2017-02-09T12:14:28.450Z,51.09
2017-02-09T12:15:37.398Z,51.18
2017-02-09T12:16:46.345Z,51.18
2017-02-09T12:17:55.293Z,51.09
2017-02-09T12:19:04.248Z,51.56
2017-02-09T12:20:13.191Z,51.56
2017-02-09T12:21:22.140Z,51.65
2017-02-09T12:22:31.091Z,51.65
2017-02-09T12:23:40.037Z,50.9
2017-02-09T12:24:48.984Z,51.75
2017-02-09T12:25:57.928Z,51.18
2017-02-09T12:27:07.284Z,50.71
2017-02-09T12:28:16.229Z,50.99
2017-02-09T12:29:25.176Z,50.99
2017-02-09T12:30:34.214Z,50.8
2017-02-09T12:31:43.160Z,50.42
2017-02-09T12:32:52.105Z,50.52
2017-02-09T12:34:01.057Z,50.8
2017-02-09T12:35:10.004Z,50.9
2017-02-09T12:36:18.954Z,51.18
2017-02-09T12:37:27.909Z,51.65
2017-02-09T12:38:36.859Z,51.65
2017-02-09T12:39:45.893Z,51.65
2017-02-09T12:40:54.839Z,51.46
2017-02-09T12:42:03.790Z,51.65
2017-02-09T12:43:12.739Z,51.56
2017-02-09T12:44:21.722Z,51.37
2017-02-09T12:45:30.671Z,51.56
2017-02-09T12:46:39.619Z,51.56
2017-02-09T12:47:48.603Z,51.75
2017-02-09T12:48:57.550Z,51.53
2017-02-09T12:50:06.508Z,51.62
2017-02-09T12:51:15.460Z,51.46
2017-02-09T12:52:24.408Z,51.65
2017-02-09T12:53:33.444Z,51.84
2017-02-09T12:54:42.394Z,51.65
2017-02-09T12:55:51.344Z,51.65
2017-02-09T12:57:00.328Z,51.65
2017-02-09T12:58:09.279Z,51.56
2017-02-09T12:59:18.227Z,51.37
2017-02-09T13:00:27.183Z,51.56
2017-02-09T13:01:36.537Z,51.28
2017-02-09T13:02:45.487Z,51.91
2017-02-09T13:03:54.432Z,52.19
2017-02-09T13:05:03.382Z,52.19
2017-02-09T13:06:12.415Z,52.76
2017-02-09T13:07:21.365Z,52.57
2017-02-09T13:08:30.314Z,52.19
2017-02-09T13:09:39.668Z,52
2017-02-09T13:10:48.704Z,52.57
2017-02-09T13:11:57.655Z,52.86
2017-02-09T13:13:06.610Z,52.57
2017-02-09T13:14:15.560Z,52.48
2017-02-09T13:15:24.512Z,52.38
2017-02-09T13:16:33.465Z,52.88
2017-02-09T13:17:42.500Z,52.95
2017-02-09T13:18:51.446Z,53.42
2017-02-09T13:20:00.483Z,53.33
2017-02-09T13:21:09.433Z,53.42
2017-02-09T13:22:18.394Z,52.95
2017-02-09T13:23:27.357Z,53.14
2017-02-09T13:24:36.305Z,53.05
2017-02-09T13:25:45.253Z,53.14
2017-02-09T13:26:54.205Z,53.23
2017-02-09T13:28:03.568Z,53.14
2017-02-09T13:29:12.521Z,53.52
2017-02-09T13:30:21.469Z,53.42
2017-02-09T13:31:30.421Z,53.52
2017-02-09T13:32:39.376Z,53.99
2017-02-09T13:33:48.323Z,54.08
2017-02-09T13:34:57.364Z,53.99
2017-02-09T13:36:06.726Z,53.99
2017-02-09T13:37:15.673Z,53.89
2017-02-09T13:38:24.622Z,54.27
2017-02-09T13:39:33.566Z,54.18
2017-02-09T13:40:42.510Z,54.55
2017-02-09T13:41:51.460Z,54.08
2017-02-09T13:43:00.409Z,54.65
2017-02-09T13:44:09.361Z,54.74
2017-02-09T13:45:18.312Z,54.65
2017-02-09T13:46:27.263Z,54.55
2017-02-09T13:47:36.215Z,54.65
2017-02-09T13:48:45.164Z,54.55
2017-02-09T13:49:54.111Z,54.74
2017-02-09T13:51:03.234Z,55.12
2017-02-09T13:52:12.183Z,55.22
2017-02-09T13:53:21.139Z,55.31
2017-02-09T13:54:30.085Z,55.12
2017-02-09T13:55:39.036Z,55.98
2017-02-09T13:56:47.987Z,55.88
2017-02-09T13:57:56.938Z,55.88
2017-02-09T13:59:06.297Z,55.79
2017-02-09T14:00:15.247Z,55.88
2017-02-09T14:01:24.194Z,55.69
2017-02-09T14:02:33.145Z,55.5
2017-02-09T14:03:42.501Z,55.69
2017-02-09T14:04:51.453Z,55.5
2017-02-09T14:06:00.401Z,56.35
2017-02-09T14:07:09.353Z,56.26
2017-02-09T14:08:18.388Z,56.35
2017-02-09T14:09:27.334Z,55.98
2017-02-09T14:10:36.282Z,56.16
2017-02-09T14:11:45.317Z,56.92
2017-02-09T14:12:54.261Z,56.63
2017-02-09T14:14:03.213Z,56.54
2017-02-09T14:15:12.161Z,56.73
2017-02-09T14:16:21.193Z,56.54
2017-02-09T14:17:30.144Z,56.45
2017-02-09T14:18:39.095Z,56.45
2017-02-09T14:19:48.132Z,56.54
2017-02-09T14:20:57.489Z,56.35
2017-02-09T14:22:06.440Z,56.92
2017-02-09T14:23:15.389Z,56.54
2017-02-09T14:24:24.336Z,56.82
2017-02-09T14:25:33.283Z,56.82
2017-02-09T14:26:42.231Z,56.73
2017-02-09T14:27:51.272Z,56.92
2017-02-09T14:29:00.220Z,56.54
2017-02-09T14:30:09.166Z,56.63
2017-02-09T14:31:18.113Z,57.11
2017-02-09T14:32:27.057Z,57.2
2017-02-09T14:33:36.011Z,56.82
2017-02-09T14:34:45.050Z,56.92
2017-02-09T14:35:54.085Z,57.11
2017-02-09T14:37:03.030Z,57.3
2017-02-09T14:38:11.979Z,57.11
2017-02-09T14:39:21.015Z,57.2
2017-02-09T14:40:29.959Z,57.11
2017-02-09T14:41:38.994Z,57.11
2017-02-09T14:42:48.344Z,57.49
2017-02-09T14:43:57.385Z,57.49
2017-02-09T14:45:06.335Z,57.77
2017-02-09T14:46:15.369Z,57.96
2017-02-09T14:47:24.315Z,57.3
2017-02-09T14:48:33.258Z,57.49
2017-02-09T14:49:42.203Z,57.77
2017-02-09T14:50:51.149Z,57.68
2017-02-09T14:52:00.503Z,57.77